Time;durP1;ratioP1;P1;durP2;ratioP2;P2;SDS_P1;SDS_P2;PMS_P1;PMS_P2;Temp;Humidity;BMP_temperature;BMP_pressure;BME280_temperature;BME280_humidity;BME280_pressure;Samples;Min_cycle;Max_cycle;Signal;HPM_P1;HPM_P2
2024/04/16 00:01:08;;;;;;;2.50;2.30;;;;;;;-141.84;62.98;19137.13;5435004;26;20279;-60
2024/04/16 00:03:36;;;;;;;2.80;2.30;;;;;;;-141.84;62.23;19151.34;5421415;26;20264;-59
2024/04/16 00:06:07;;;;;;;3.93;2.50;;;6.90;99.90;;;-141.84;62.93;19106.66;5433761;26;20258;-59
2024/04/16 00:08:35;;;;;;;3.53;2.63;;;;;;;-141.84;63.24;19141.19;5435503;26;20229;-60
2024/04/16 00:11:09;;;;;;;3.30;2.50;;;;;;;-141.84;62.35;19098.50;5426766;26;20233;-60
2024/04/16 00:13:37;;;;;;;2.43;2.17;;;;;;;-141.84;63.50;19112.75;5443720;26;20259;-60
2024/04/16 00:16:11;;;;;;;2.97;2.13;;;;;;;-141.84;62.68;19090.38;5430463;26;20298;-60
2024/04/16 00:18:39;;;;;;;3.37;2.47;;;;;;;-141.84;61.92;19126.97;5431841;26;20292;-60
2024/04/16 00:21:10;;;;;;;4.00;2.73;;;;;;;-141.84;61.55;19104.59;5416363;26;20254;-60
2024/04/16 00:23:37;;;;;;;3.60;2.03;;;;;;;-141.84;60.66;19094.44;5433867;26;20265;-60
2024/04/16 00:26:10;;;;;;;5.63;2.30;;;;;;;-141.84;60.25;19102.56;5418704;26;20336;-60
2024/04/16 00:28:40;;;;;;;2.63;2.20;;;;;;;-141.84;60.35;19126.97;5424017;26;20618;-60
2024/04/16 00:31:11;;;;;;;4.23;2.30;;;;;;;-141.84;61.24;19092.41;5429931;26;20298;-59
2024/04/16 00:33:40;;;;;;;2.40;2.17;;;;;;;-141.84;60.24;19131.03;5429530;26;20342;-59
2024/04/16 00:36:10;;;;;;;2.87;2.10;;;6.60;99.90;;;-141.84;60.40;19118.84;5431179;26;20258;-60
2024/04/16 00:38:37;;;;;;;2.60;2.00;;;6.60;99.90;;;-141.84;60.90;19098.50;5441319;26;20267;-59
2024/04/16 00:41:10;;;;;;;2.20;2.00;;;6.50;99.90;;;-141.84;62.18;19104.59;5428948;26;20229;-60
2024/04/16 00:43:38;;;;;;;4.47;2.20;;;6.50;99.90;;;-141.84;60.64;19078.19;5434018;26;20688;-60
2024/04/16 00:46:10;;;;;;;3.13;1.90;;;6.40;99.90;;;-141.84;61.03;19098.50;5434376;26;20300;-60
2024/04/16 00:48:38;;;;;;;3.77;2.40;;;6.40;99.90;;;-141.84;60.84;19131.03;5438518;26;20254;-59
2024/04/16 00:51:09;;;;;;;2.73;2.20;;;6.40;99.90;;;-141.84;60.87;19078.19;5430323;26;20308;-60
2024/04/16 00:53:37;;;;;;;2.80;2.00;;;6.40;99.90;;;-141.84;61.52;19063.97;5416807;26;20729;-60
2024/04/16 00:56:11;;;;;;;2.53;2.30;;;6.40;99.90;;;-141.84;60.70;19078.19;5414927;26;20576;-60
2024/04/16 00:58:40;;;;;;;3.07;2.03;;;6.30;99.90;;;-141.84;61.62;19086.31;5413369;26;20269;-59
2024/04/16 01:01:10;;;;;;;2.50;1.87;;;6.30;99.90;;;-141.84;62.45;19088.34;5414760;26;20253;-59
2024/04/16 01:03:37;;;;;;;4.60;2.13;;;6.30;99.90;;;-141.84;61.43;19086.31;5429361;26;20259;-60
2024/04/16 01:06:08;;;;;;;2.80;2.13;;;6.30;99.90;;;-141.84;62.09;19094.44;5413478;26;20257;-59
2024/04/16 01:08:35;;;;;;;2.97;2.30;;;6.30;99.90;;;-141.84;61.32;19078.19;5429195;26;20328;-60
2024/04/16 01:11:09;;;;;;;3.77;2.43;;;;;;;-141.84;59.73;19096.47;5431654;26;20231;-60
2024/04/16 01:13:38;;;;;;;3.20;2.20;;;;;;;-141.84;59.64;19096.47;5442832;26;20265;-60
2024/04/16 01:16:09;;;;;;;2.63;2.00;;;;;;;-141.84;60.25;19108.69;5427445;26;20264;-60
2024/04/16 01:18:37;;;;;;;5.83;2.27;;;;;;;-141.84;60.48;19122.91;5432510;26;20781;-60
2024/04/16 01:21:07;;;;;;;3.77;2.40;;;6.40;99.90;;;-141.84;60.14;19092.41;5434247;26;20292;-60
2024/04/16 01:23:38;;;;;;;3.73;2.20;;;6.50;99.90;;;-141.84;59.83;19116.81;5420963;26;20315;-60
2024/04/16 01:26:08;;;;;;;2.70;2.13;;;6.50;99.90;;;-141.84;58.12;19104.59;5442071;26;20334;-60
2024/04/16 01:28:35;;;;;;;2.83;2.00;;;6.70;99.90;;;-141.84;57.90;19114.78;5457470;26;20292;-60
2024/04/16 01:31:06;;;;;;;3.67;2.60;;;6.80;99.90;;;-141.84;57.67;19137.13;5452573;26;20309;-60
2024/04/16 01:33:35;;;;;;;3.73;2.00;;;6.80;99.90;;;-141.84;57.24;19129.00;5448861;26;20305;-60
2024/04/16 01:36:07;;;;;;;3.03;1.90;;;6.80;99.90;;;-141.84;57.03;19124.94;5448879;26;20294;-60
2024/04/16 01:38:37;;;;;;;2.07;1.90;;;6.90;99.90;;;-141.84;57.81;19129.00;5449183;26;20778;-60
2024/04/16 01:41:11;;;;;;;3.53;2.03;;;6.90;99.90;;;-141.84;57.49;19135.09;5449661;26;20229;-59
2024/04/16 01:43:39;;;;;;;2.10;1.90;;;7.00;99.90;;;-141.84;56.21;19157.44;5448565;26;20283;-60
2024/04/16 01:46:09;;;;;;;3.27;1.80;;;7.10;99.90;;;-141.84;55.79;19167.59;5447801;26;20256;-60
2024/04/16 01:48:37;;;;;;;3.67;2.00;;;7.20;99.90;;;-141.84;56.56;19173.69;5449464;26;20256;-59
2024/04/16 01:51:08;;;;;;;2.60;1.70;;;7.10;99.90;;;-141.84;55.97;19165.56;5448633;26;20357;-62
2024/04/16 01:53:39;;;;;;;2.33;1.90;;;7.20;99.90;;;-141.84;55.97;19163.53;5449633;26;20272;-60
2024/04/16 01:56:09;;;;;;;3.40;1.70;;;7.30;99.90;;;-141.84;55.61;19157.44;5449492;26;20241;-60
2024/04/16 01:58:36;;;;;;;4.23;1.73;;;7.30;99.90;;;-141.84;55.73;19151.34;5449569;26;20253;-60
2024/04/16 02:01:07;;;;;;;2.77;1.60;;;7.30;99.90;;;-141.84;56.27;19165.56;5448648;26;20303;-60
2024/04/16 02:03:35;;;;;;;2.93;2.03;;;7.10;99.90;;;-141.84;57.34;19129.00;5448740;26;20291;-60
2024/04/16 02:06:10;;;;;;;3.60;2.10;;;7.10;99.90;;;-141.84;56.11;19161.50;5448184;26;20250;-60
2024/04/16 02:08:40;;;;;;;1.87;1.70;;;7.10;99.90;;;-141.84;55.99;19177.75;5448026;26;20228;-60
2024/04/16 02:11:10;;;;;;;2.30;2.07;;;7.20;99.90;;;-141.84;56.18;19202.16;5449657;26;20659;-61
2024/04/16 02:13:37;;;;;;;3.47;1.80;;;7.20;99.90;;;-141.84;56.96;19135.09;5448215;26;20287;-61
2024/04/16 02:16:09;;;;;;;2.40;1.63;;;7.30;99.90;;;-141.84;55.97;19175.72;5448595;26;20611;-60
2024/04/16 02:18:36;;;;;;;3.77;1.80;;;7.40;99.90;;;-141.84;55.47;19171.66;5447763;26;20744;-60
2024/04/16 02:21:08;;;;;;;2.67;1.70;;;7.40;99.90;;;-141.84;55.73;19187.91;5448886;26;20249;-60
2024/04/16 02:23:35;;;;;;;1.93;1.67;;;7.40;99.90;;;-141.84;54.64;19198.09;5447352;26;20226;-60
2024/04/16 02:26:08;;;;;;;3.13;1.77;;;7.50;99.90;;;-141.84;55.39;19194.03;5399080;26;20620;-60
2024/04/16 02:28:35;;;;;;;2.07;1.50;;;7.50;99.90;;;-141.84;55.65;19147.28;5414217;26;20293;-60
2024/04/16 02:31:06;;;;;;;2.73;2.00;;;7.50;99.90;;;-141.84;55.43;19183.84;5430085;26;20279;-59
2024/04/16 02:33:33;;;;;;;3.27;2.23;;;7.40;99.90;;;-141.84;54.77;19200.13;5417424;26;20355;-59
2024/04/16 02:36:03;;;;;;;3.47;2.03;;;7.40;99.90;;;-141.84;56.16;19143.22;5409409;26;20254;-59
2024/04/16 02:38:31;;;;;;;4.70;1.60;;;7.50;99.90;;;-141.84;55.92;19171.66;5430674;26;20238;-61
2024/04/16 02:41:01;;;;;;;2.07;1.70;;;7.40;99.90;;;-141.84;55.59;19151.34;5439178;26;20226;-60
2024/04/16 02:43:31;;;;;;;1.63;1.40;;;7.30;99.90;;;-141.84;56.80;19155.41;5432404;26;20269;-60
2024/04/16 02:46:01;;;;;;;1.83;1.60;;;7.30;99.90;;;-141.84;55.71;19171.66;5427959;26;20301;-61
2024/04/16 02:48:28;;;;;;;2.83;1.60;;;7.30;99.90;;;-141.84;55.97;19187.91;5428114;26;20262;-60
2024/04/16 02:51:02;;;;;;;2.93;1.53;;;7.30;99.90;;;-141.84;56.01;19167.59;5427635;26;20590;-60
2024/04/16 02:53:30;;;;;;;2.17;1.67;;;7.40;99.90;;;-141.84;56.01;19183.84;5412679;26;20265;-61
2024/04/16 02:56:00;;;;;;;2.60;1.47;;;7.40;99.90;;;-141.84;55.98;19159.47;5428512;26;20734;-60
2024/04/16 02:58:30;;;;;;;1.97;1.37;;;7.50;99.90;;;-141.84;55.50;19167.59;5433561;26;20254;-60
2024/04/16 03:01:00;;;;;;;3.07;1.40;;;7.50;99.90;;;-141.84;55.57;19175.72;5435972;26;20334;-64
2024/04/16 03:03:28;;;;;;;3.10;1.50;;;7.50;99.90;;;-141.84;56.47;19169.63;5436219;26;20291;-60
2024/04/16 03:05:58;;;;;;;4.13;1.40;;;7.40;99.90;;;-141.84;56.44;19200.13;5341736;26;20254;-60
2024/04/16 03:08:26;;;;;;;1.97;1.20;;;7.40;99.90;;;-141.84;55.83;19232.63;5431994;26;20231;-61
2024/04/16 03:10:59;;;;;;;2.53;1.27;;;7.50;99.90;;;-141.84;56.24;19183.84;5431144;26;20235;-60
2024/04/16 03:13:30;;;;;;;2.60;1.53;;;7.50;99.90;;;-141.84;55.95;19202.16;5435273;26;20338;-60
2024/04/16 03:16:07;;;;;;;3.77;1.33;;;7.50;99.90;;;-141.84;55.24;19196.06;5423226;26;20251;-60
2024/04/16 03:18:34;;;;;;;1.50;1.40;;;7.50;99.90;;;-141.84;55.43;19189.97;5419589;26;20262;-60
2024/04/16 03:21:05;;;;;;;4.37;1.60;;;7.50;99.90;;;-141.84;56.17;19151.34;5435363;26;20250;-61
2024/04/16 03:23:32;;;;;;;2.83;1.50;;;7.40;99.90;;;-141.84;55.75;19179.78;5422135;26;20262;-60
2024/04/16 03:26:06;;;;;;;1.70;1.40;;;7.50;99.90;;;-141.84;55.23;19202.16;5436932;26;20234;-59
2024/04/16 03:28:36;;;;;;;4.60;1.80;;;7.50;99.90;;;-141.84;55.10;19198.09;5450741;26;20262;-60
2024/04/16 03:31:09;;;;;;;2.73;1.57;;;7.50;99.90;;;-141.84;55.26;19167.59;5451465;26;20316;-60
2024/04/16 03:33:37;;;;;;;1.87;1.30;;;7.50;99.90;;;-141.84;55.12;19187.91;5448203;26;20245;-61
2024/04/16 03:36:08;;;;;;;2.33;1.53;;;7.60;99.90;;;-141.84;55.26;19200.13;5451710;26;20323;-60
2024/04/16 03:38:38;;;;;;;3.40;1.60;;;7.50;99.90;;;-141.84;55.50;19175.72;5436670;26;20262;-59
2024/04/16 03:41:08;;;;;;;3.23;1.60;;;7.50;99.90;;;-141.84;55.85;19165.56;5451315;26;20230;-59
2024/04/16 03:43:38;;;;;;;3.40;1.57;;;7.50;99.90;;;-141.84;55.14;19196.06;5450276;26;20253;-59
2024/04/16 03:46:09;;;;;;;3.80;1.70;;;7.50;99.90;;;-141.84;55.64;19177.75;5450896;26;20728;-59
2024/04/16 03:48:36;;;;;;;4.20;1.73;;;7.40;99.90;;;-141.84;56.09;19165.56;5449661;26;20249;-62
2024/04/16 03:51:11;;;;;;;2.20;1.80;;;7.30;99.90;;;-141.84;56.57;19159.47;5451074;26;20528;-61
2024/04/16 03:53:38;;;;;;;2.43;1.87;;;7.20;99.90;;;-141.84;56.70;19143.22;5450786;26;20672;-60
2024/04/16 03:56:09;;;;;;;2.83;1.57;;;7.20;99.90;;;-141.84;57.10;19153.38;5451017;26;20763;-60
2024/04/16 03:58:44;;;;;;;2.00;1.60;;;7.10;99.90;;;-141.84;57.55;19126.97;5435698;26;20257;-60
2024/04/16 04:01:16;;;;;;;4.13;2.20;;;7.00;99.90;;;-141.84;57.76;19153.38;5450830;26;20253;-60
2024/04/16 04:03:45;;;;;;;2.03;1.70;;;7.00;99.90;;;-141.84;57.56;19110.72;5450152;26;20655;-60
2024/04/16 04:06:15;;;;;;;4.37;2.00;;;6.90;99.90;;;-141.84;57.96;19118.84;5450371;26;20308;-59
2024/04/16 04:08:44;;;;;;;3.17;2.10;;;6.90;99.90;;;-141.84;56.86;19133.06;5449342;26;20325;-60
2024/04/16 04:11:14;;;;;;;2.60;1.63;;;6.90;99.90;;;-141.84;57.02;19110.72;5436257;26;20273;-60
2024/04/16 04:13:45;;;;;;;3.00;1.80;;;7.00;99.90;;;-141.84;58.02;19141.19;5449726;26;20309;-60
2024/04/16 04:16:16;;;;;;;3.80;2.47;;;7.00;99.90;;;-141.84;57.95;19139.16;5449799;26;20245;-60
2024/04/16 04:18:45;;;;;;;3.47;2.03;;;7.00;99.90;;;-141.84;57.40;19126.97;5450125;26;20413;-60
2024/04/16 04:21:15;;;;;;;3.13;2.00;;;6.90;99.90;;;-141.84;57.83;19141.19;5450305;26;20245;-59
2024/04/16 04:23:42;;;;;;;5.50;2.20;;;7.00;99.90;;;-141.84;57.20;19110.72;5449242;26;20912;-59
2024/04/16 04:26:14;;;;;;;4.50;2.27;;;7.00;99.90;;;-141.84;56.91;19122.91;5389007;26;20289;-61
2024/04/16 04:28:45;;;;;;;3.43;1.90;;;7.00;99.90;;;-141.84;57.74;19122.91;5450586;26;20254;-60
2024/04/16 04:31:18;;;;;;;3.53;1.90;;;7.00;99.90;;;-141.84;57.62;19157.44;5450329;26;20257;-61
2024/04/16 04:33:46;;;;;;;3.07;2.50;;;7.00;99.90;;;-141.84;56.76;19165.56;5450029;26;20348;-59
2024/04/16 04:36:16;;;;;;;3.20;2.50;;;7.00;99.90;;;-141.84;57.61;19114.78;5450309;26;20252;-60
2024/04/16 04:38:44;;;;;;;4.50;2.37;;;7.10;99.90;;;-141.84;57.61;19129.00;5449989;26;20353;-60
2024/04/16 04:41:14;;;;;;;4.13;2.00;;;7.00;99.90;;;-141.84;57.87;19141.19;5450354;26;20709;-60
2024/04/16 04:43:45;;;;;;;4.50;2.10;;;7.10;99.90;;;-141.84;58.30;19122.91;5449533;26;20618;-59
2024/04/16 04:46:15;;;;;;;3.00;1.80;;;7.00;99.90;;;-141.84;57.10;19147.28;5457559;26;20257;-61
2024/04/16 04:48:42;;;;;;;1.93;1.83;;;7.10;99.90;;;-141.84;58.17;19143.22;5449942;26;20262;-60
2024/04/16 04:51:14;;;;;;;2.43;2.23;;;7.00;99.90;;;-141.84;57.78;19133.06;5434922;26;20292;-60
2024/04/16 04:53:41;;;;;;;4.10;1.80;;;7.00;99.90;;;-141.84;56.46;19157.44;5450188;26;20253;-60
2024/04/16 04:56:11;;;;;;;3.90;2.13;;;7.10;99.90;;;-141.84;57.15;19171.66;5450334;26;20229;-60
2024/04/16 04:58:39;;;;;;;3.27;1.80;;;7.10;99.90;;;-141.84;57.85;19137.13;5449666;26;20775;-60
2024/04/16 05:01:12;;;;;;;4.57;1.93;;;7.10;99.90;;;-141.84;57.01;19147.28;5457365;26;20256;-60
2024/04/16 05:03:40;;;;;;;3.80;2.40;;;7.20;99.90;;;-141.84;56.44;19153.38;5448600;26;20308;-60
2024/04/16 05:06:10;;;;;;;4.03;2.13;;;7.20;99.90;;;-141.84;56.88;19163.53;5445694;26;20796;-59
2024/04/16 05:08:37;;;;;;;4.43;2.13;;;7.30;99.90;;;-141.84;57.31;19145.25;5450159;26;20263;-60
2024/04/16 05:11:08;;;;;;;2.87;1.93;;;7.30;99.90;;;-141.84;56.04;19169.63;5453889;26;20221;-60
2024/04/16 05:13:37;;;;;;;3.70;1.90;;;7.40;99.90;;;-141.84;55.09;19161.50;5456161;26;20288;-59
2024/04/16 05:16:10;;;;;;;3.43;2.17;;;7.50;99.90;;;-141.84;55.21;19183.84;5451796;26;20937;-60
2024/04/16 05:18:38;;;;;;;2.37;1.70;;;7.60;99.90;;;-141.84;55.03;19147.28;5457260;26;20302;-59
2024/04/16 05:21:08;;;;;;;3.77;2.17;;;7.60;99.90;;;-141.84;54.04;19196.06;5456757;26;20258;-59
2024/04/16 05:23:35;;;;;;;3.10;1.70;;;7.70;99.90;;;-141.84;54.12;19185.88;5449335;26;20230;-60
2024/04/16 05:26:07;;;;;;;2.40;1.70;;;7.90;99.90;;;-141.84;53.46;19228.56;5450216;26;20226;-60
2024/04/16 05:28:38;;;;;;;2.03;1.80;;;8.00;99.90;;;-141.84;52.93;19230.59;5450286;26;20253;-60
2024/04/16 05:31:08;;;;;;;3.53;1.73;;;8.10;99.90;;;-141.84;53.19;19242.78;5452093;26;20294;-62
2024/04/16 05:33:38;;;;;;;3.23;1.90;;;8.20;99.90;;;-141.84;52.51;19248.88;5449231;26;20829;-60
2024/04/16 05:36:07;;;;;;;5.00;2.20;;;8.40;99.90;;;-141.84;52.26;19254.97;5453469;26;20288;-60
2024/04/16 05:38:37;;;;;;;4.07;2.17;;;8.50;99.90;;;-141.84;51.35;19285.47;5449432;26;20229;-60
2024/04/16 05:41:05;;;;;;;3.67;2.00;;;8.60;99.90;;;-141.84;50.99;19269.22;5449582;26;20835;-60
2024/04/16 05:43:35;;;;;;;3.40;1.57;;;8.80;99.90;;;-141.84;50.75;19275.31;5449197;26;20258;-61
2024/04/16 05:46:03;;;;;;;2.93;1.50;;;8.80;99.90;;;-141.84;51.24;19277.34;5449513;26;20337;-60
2024/04/16 05:48:37;;;;;;;3.77;1.90;;;8.80;99.90;;;-141.84;50.27;19293.59;5465148;26;20257;-60
2024/04/16 05:51:05;;;;;;;1.90;1.57;;;9.00;99.90;;;-141.84;49.76;19360.66;5455947;26;20269;-60
2024/04/16 05:53:35;;;;;;;2.67;1.80;;;9.20;99.90;;;-141.84;48.43;19385.03;5448142;26;20654;-60
2024/04/16 05:56:03;;;;;;;3.67;2.63;;;9.50;99.90;;;-141.84;47.81;19397.22;5451150;26;20230;-60
2024/04/16 05:58:33;;;;;;;2.27;1.67;;;9.70;99.90;;;-141.84;47.25;19389.09;5448636;26;20292;-60
2024/04/16 06:01:05;;;;;;;3.13;1.67;;;9.80;99.90;;;-141.84;47.70;19393.16;5448568;26;20265;-60
2024/04/16 06:03:38;;;;;;;4.97;2.00;;;9.80;99.90;;;-141.84;48.33;19435.84;5447844;26;20257;-60
2024/04/16 06:06:06;;;;;;;2.83;1.70;;;9.90;99.90;;;-141.84;47.43;19415.50;5448686;26;20253;-60
2024/04/16 06:08:36;;;;;;;3.33;1.70;;;10.10;99.90;;;-141.84;46.83;19419.59;5448484;26;20264;-60
2024/04/16 06:11:04;;;;;;;2.63;1.47;;;10.20;99.90;;;-141.84;47.08;19407.38;5448203;26;20234;-60
2024/04/16 06:13:34;;;;;;;4.60;1.60;;;9.90;99.90;;;-141.84;47.53;19405.34;5457773;26;20736;-60
2024/04/16 06:16:06;;;;;;;5.73;1.73;;;9.90;99.90;;;-141.84;47.42;19401.28;5454823;26;20252;-60
2024/04/16 06:18:40;;;;;;;2.77;1.40;;;9.70;99.90;;;-141.84;47.72;19405.34;5451720;26;20250;-60
2024/04/16 06:21:07;;;;;;;3.60;1.60;;;9.70;99.90;;;-141.84;47.83;19370.81;5451146;26;20287;-61
2024/04/16 06:23:38;;;;;;;5.23;1.43;;;9.50;99.90;;;-141.84;47.37;19385.03;5447971;26;20230;-60
2024/04/16 06:26:08;;;;;;;4.30;1.87;;;9.60;99.90;;;-141.84;47.11;19405.34;5439758;26;20231;-62
2024/04/16 06:28:39;;;;;;;2.77;1.70;;;9.60;99.90;;;-141.84;47.41;19368.78;5425336;26;20250;-59
2024/04/16 06:31:07;;;;;;;2.83;1.53;;;9.50;99.90;;;-141.84;46.82;19405.34;5421236;26;20285;-60
2024/04/16 06:33:40;;;;;;;3.20;1.50;;;9.60;99.90;;;-141.84;46.99;19374.88;5435598;26;20262;-60
2024/04/16 06:36:08;;;;;;;4.67;1.50;;;9.60;99.90;;;-141.84;47.00;19427.72;5419719;26;20312;-60
2024/04/16 06:38:38;;;;;;;2.90;1.50;;;9.60;99.90;;;-141.84;47.81;19403.31;5419548;26;20265;-61
2024/04/16 06:41:06;;;;;;;3.80;1.60;;;9.60;99.90;;;-141.84;47.59;19407.38;5407059;26;20232;-60
2024/04/16 06:43:35;;;;;;;4.30;1.70;;;9.60;99.90;;;-141.84;47.80;19405.34;5436477;26;20750;-61
2024/04/16 06:46:04;;;;;;;6.13;1.60;;;9.70;99.90;;;-141.84;47.10;19415.50;5439399;26;20341;-60
2024/04/16 06:48:34;;;;;;;3.23;1.63;;;9.80;99.90;;;-141.84;46.79;19462.25;5417911;26;20772;-60
2024/04/16 06:51:08;;;;;;;5.53;1.67;;;10.00;99.90;;;-141.84;45.88;19468.34;5426144;26;20304;-60
2024/04/16 06:53:38;;;;;;;3.50;1.60;;;10.20;99.90;;;-141.84;45.41;19480.53;5444091;26;20226;-61
2024/04/16 06:56:07;;;;;;;3.97;1.63;;;10.30;99.90;;;-141.84;45.97;19435.84;5411550;26;20301;-59
2024/04/16 06:58:37;;;;;;;5.93;1.60;;;10.20;99.90;;;-141.84;46.09;19435.84;5443222;26;20250;-61
2024/04/16 07:01:05;;;;;;;2.67;1.57;;;10.00;99.90;;;-141.84;46.07;19443.97;5443398;26;20245;-60
2024/04/16 07:03:36;;;;;;;3.87;1.53;;;10.00;99.90;;;-141.84;45.45;19456.16;5437288;26;20313;-60
2024/04/16 07:06:08;;;;;;;4.27;1.63;;;10.10;99.90;;;-141.84;45.36;19466.31;5420549;26;20288;-60
2024/04/16 07:08:38;;;;;;;2.17;1.67;;;10.10;99.90;;;-141.84;46.14;19433.81;5419267;26;20265;-61
2024/04/16 07:11:06;;;;;;;6.57;1.97;;;10.00;99.90;;;-141.84;45.74;19427.72;5407235;26;20223;-60
2024/04/16 07:13:37;;;;;;;2.97;1.33;;;10.00;99.90;;;-141.84;46.07;19427.72;5436277;26;20255;-61
2024/04/16 07:16:06;;;;;;;3.53;1.70;;;9.90;99.90;;;-141.84;44.73;19478.50;5437066;26;20306;-60
2024/04/16 07:18:36;;;;;;;5.47;1.90;;;10.10;99.90;;;-141.84;44.74;19472.41;5440180;26;20366;-59
2024/04/16 07:21:06;;;;;;;3.87;1.67;;;10.20;99.90;;;-141.84;44.71;19468.34;5427883;26;20302;-60
2024/04/16 07:23:37;;;;;;;4.67;1.70;;;10.10;99.90;;;-141.84;44.92;19490.72;5439375;26;20223;-60
2024/04/16 07:26:05;;;;;;;8.33;2.30;;;10.10;99.90;;;-141.84;44.90;19464.28;5441409;26;20277;-60
2024/04/16 07:28:36;;;;;;;4.30;1.80;;;10.20;99.90;;;-141.84;44.24;19464.28;5430588;26;20255;-61
2024/04/16 07:31:06;;;;;;;5.03;1.50;;;10.20;99.90;;;-141.84;44.85;19490.72;5405953;26;20305;-60
2024/04/16 07:33:45;;;;;;;6.57;1.83;;;10.30;99.90;;;-141.84;44.70;19492.75;5353282;26;20261;-62
2024/04/16 07:36:15;;;;;;;4.37;1.77;;;10.40;99.90;;;-141.84;44.80;19535.41;5419990;26;20254;-61
2024/04/16 07:38:50;;;;;;;3.37;1.50;;;10.50;99.90;;;-141.84;44.52;19498.84;5435410;26;20289;-61
2024/04/16 07:41:17;;;;;;;7.73;1.70;;;10.30;99.90;;;-141.84;44.92;19437.88;5446211;26;20333;-60
2024/04/16 07:43:48;;;;;;;4.30;1.57;;;10.20;99.90;;;-141.84;46.07;19423.66;5431832;26;20821;-59
2024/04/16 07:46:15;;;;;;;2.60;1.40;;;10.00;99.90;;;-141.84;46.10;19456.16;5431167;26;20302;-59
2024/04/16 07:48:45;;;;;;;3.20;1.50;;;10.00;99.90;;;-141.84;45.76;19476.47;5433159;26;20337;-61
2024/04/16 07:51:16;;;;;;;2.47;1.47;;;10.10;99.90;;;-141.84;45.30;19472.41;5427943;26;20246;-60
2024/04/16 07:53:48;;;;;;;2.13;1.30;;;10.20;99.90;;;-141.84;44.64;19472.41;5435525;26;20289;-61
2024/04/16 07:56:16;;;;;;;5.77;1.67;;;10.20;99.90;;;-141.84;45.45;19496.81;5434690;26;20271;-60
2024/04/16 07:58:49;;;;;;;2.80;1.30;;;10.50;99.90;;;-141.84;44.02;19527.28;5432032;26;20235;-60
2024/04/16 08:01:17;;;;;;;4.67;1.53;;;10.60;99.90;;;-141.84;44.45;19557.78;5433519;26;20355;-60
2024/04/16 08:03:48;;;;;;;7.90;1.70;;;10.80;99.90;;;-141.84;43.90;19521.19;5443935;26;20262;-59
2024/04/16 08:06:18;;;;;;;3.13;1.33;;;10.70;99.90;;;-141.84;44.58;19511.03;5428014;26;20254;-59
2024/04/16 08:08:50;;;;;;;2.77;1.40;;;10.60;99.90;;;-141.84;44.37;19506.97;5432221;26;20281;-59
2024/04/16 08:11:18;;;;;;;4.73;1.57;;;10.50;99.90;;;-141.84;44.48;19504.94;5431355;26;20231;-60
2024/04/16 08:13:50;;;;;;;3.20;1.50;;;10.40;99.90;;;-141.84;44.07;19496.81;5431270;26;20590;-61
2024/04/16 08:16:17;;;;;;;3.77;1.77;;;10.40;99.90;;;-141.84;44.78;19523.22;5444706;26;20586;-60
2024/04/16 08:18:48;;;;;;;3.93;1.30;;;10.60;99.90;;;-141.84;43.95;19549.63;5430902;26;20251;-60
2024/04/16 08:21:20;;;;;;;4.03;1.20;;;10.90;99.90;;;-141.84;42.46;19569.97;5432917;26;20243;-60
2024/04/16 08:23:53;;;;;;;2.50;1.20;;;11.10;99.90;;;-141.84;42.06;19574.03;5435006;26;20253;-60
2024/04/16 08:26:20;;;;;;;5.03;1.53;;;11.20;99.90;;;-141.84;42.53;19616.72;5435794;26;20225;-60
2024/04/16 08:28:50;;;;;;;4.23;1.40;;;11.30;99.90;;;-141.84;42.30;19596.38;5422921;26;20235;-60
2024/04/16 08:31:18;;;;;;;3.17;1.37;;;11.30;99.90;;;-141.84;42.35;19574.03;5415119;26;20255;-61
2024/04/16 08:33:49;;;;;;;5.57;1.40;;;11.00;99.90;;;-141.84;42.06;19649.22;5414153;26;20251;-61
2024/04/16 08:36:21;;;;;;;4.57;1.40;;;11.20;99.90;;;-141.84;41.22;19673.59;5406533;26;20356;-60
2024/04/16 08:38:50;;;;;;;5.03;1.50;;;11.50;99.90;;;-141.84;40.67;19685.81;5435426;26;20305;-60
2024/04/16 08:41:20;;;;;;;3.70;1.17;;;11.80;99.90;;;-141.84;40.66;19651.25;5437014;26;20257;-60
2024/04/16 08:43:51;;;;;;;4.73;1.30;;;11.90;99.90;;;-141.84;41.67;19687.84;5433705;26;20235;-59
2024/04/16 08:46:22;;;;;;;3.10;1.10;;;11.60;99.90;;;-141.84;41.30;19628.91;5429792;26;20270;-60
2024/04/16 08:48:52;;;;;;;2.20;1.20;;;11.40;99.90;;;-141.84;42.51;19549.63;5400218;26;20317;-60
2024/04/16 08:51:26;;;;;;;2.27;1.00;;;11.00;99.90;;;-141.84;42.75;19553.72;5415821;26;20596;-60
2024/04/16 08:53:55;;;;;;;4.70;1.60;;;10.90;99.90;;;-141.84;43.24;19496.81;5353073;26;20800;-59
2024/04/16 08:56:28;;;;;;;2.57;1.20;;;10.60;99.90;;;-141.84;43.49;19502.91;5415436;26;20273;-61
2024/04/16 08:58:55;;;;;;;5.03;1.23;;;10.40;99.90;;;-141.84;44.28;19496.81;5430692;26;20227;-60
2024/04/16 09:01:28;;;;;;;4.40;1.30;;;10.30;99.90;;;-141.84;44.06;19472.41;5434933;26;20250;-59
2024/04/16 09:03:56;;;;;;;4.43;1.03;;;10.20;99.90;;;-141.84;43.74;19515.09;5428640;26;20259;-60
2024/04/16 09:06:31;;;;;;;3.80;1.20;;;10.20;99.90;;;-141.84;42.99;19511.03;5429959;26;20323;-60
2024/04/16 09:09:02;;;;;;;2.03;1.40;;;10.30;99.90;;;-141.84;43.86;19537.44;5399158;26;20293;-60
2024/04/16 09:11:40;;;;;;;2.83;1.37;;;10.40;99.90;;;-141.84;43.03;19602.47;5429375;26;20238;-60
2024/04/16 09:14:12;;;;;;;2.50;1.33;;;10.60;99.90;;;-141.84;43.24;19533.38;5401632;26;20230;-60
2024/04/16 09:16:41;;;;;;;4.40;1.27;;;10.60;99.90;;;-141.84;42.83;19578.09;5429673;26;20254;-60
2024/04/16 09:19:14;;;;;;;2.63;1.40;;;10.70;99.90;;;-141.84;43.21;19565.91;5431957;26;20289;-60
2024/04/16 09:21:45;;;;;;;2.10;1.10;;;10.70;99.90;;;-141.84;43.36;19541.50;5434760;26;20242;-60
2024/04/16 09:24:22;;;;;;;2.80;1.03;;;10.70;99.90;;;-141.84;43.22;19547.59;5434324;26;20261;-60
2024/04/16 09:26:50;;;;;;;3.07;1.30;;;10.60;99.90;;;-141.84;43.40;19549.63;5419696;26;20631;-61
2024/04/16 09:29:27;;;;;;;2.87;1.30;;;10.60;99.90;;;-141.84;43.37;19580.13;5434330;26;20780;-60
2024/04/16 09:31:59;;;;;;;2.13;1.10;;;10.70;99.90;;;-141.84;42.92;19572.00;5424431;26;20309;-60
2024/04/16 09:34:31;;;;;;;3.57;0.90;;;10.70;99.90;;;-141.84;43.50;19525.25;5428797;26;20254;-61
2024/04/16 09:37:01;;;;;;;3.63;1.00;;;10.70;99.90;;;-141.84;43.40;19557.78;5430797;26;20241;-60
2024/04/16 09:39:31;;;;;;;1.63;0.90;;;10.60;99.90;;;-141.84;43.72;19553.72;5430221;26;20258;-60
2024/04/16 09:41:59;;;;;;;2.53;1.20;;;10.60;99.90;;;-141.84;43.28;19569.97;5430312;26;20250;-60
2024/04/16 09:44:34;;;;;;;2.27;0.90;;;10.90;99.90;;;-141.84;42.75;19608.56;5431946;26;20592;-60
2024/04/16 09:47:05;;;;;;;2.90;1.00;;;11.00;99.90;;;-141.84;42.78;19620.78;5434940;26;20260;-60
2024/04/16 09:49:37;;;;;;;1.33;0.70;;;11.10;99.90;;;-141.84;42.96;19572.00;5432765;26;20268;-62
2024/04/16 09:52:28;;;;;;;1.50;0.80;;;11.10;99.90;;;-141.84;43.81;19549.63;5429006;26;20355;-60
2024/04/16 09:55:08;;;;;;;1.63;0.90;;;11.00;99.90;;;-141.84;43.31;19545.56;5432047;26;20253;-61
2024/04/16 09:57:39;;;;;;;2.20;0.80;;;10.90;99.90;;;-141.84;44.33;19492.75;5433892;26;20307;-60
2024/04/16 10:00:14;;;;;;;3.27;1.23;;;10.60;99.90;;;-141.84;45.77;19466.31;5432275;26;20334;-60
2024/04/16 10:02:44;;;;;;;3.57;0.90;;;10.30;99.90;;;-141.84;45.61;19472.41;5369298;26;20593;-62
2024/04/16 10:05:16;;;;;;;2.20;0.80;;;10.20;99.90;;;-141.84;44.68;19565.91;5419673;26;20302;-60
2024/04/16 10:07:48;;;;;;;2.77;1.00;;;10.30;99.90;;;-141.84;43.02;19557.78;5398969;26;20305;-60
2024/04/16 10:10:19;;;;;;;1.80;0.70;;;10.80;99.90;;;-141.84;42.67;19628.91;5429486;26;20289;-61
2024/04/16 10:12:47;;;;;;;1.30;0.80;;;11.10;99.90;;;-141.84;42.01;19641.09;5429419;26;20292;-62
2024/04/16 10:15:17;;;;;;;2.13;1.00;;;11.30;99.90;;;-141.84;41.58;19665.47;5429571;26;20254;-60
2024/04/16 10:17:50;;;;;;;2.23;0.80;;;11.60;99.90;;;-141.84;41.53;19673.59;5429599;26;20334;-60
2024/04/16 10:20:23;;;;;;;2.60;1.00;;;11.70;99.90;;;-141.84;40.74;19698.00;5413855;26;20226;-60
2024/04/16 10:22:56;;;;;;;0.87;0.63;;;11.80;99.90;;;-141.84;41.36;19724.41;5375499;26;20726;-61
2024/04/16 10:25:32;;;;;;;1.43;0.63;;;11.90;99.90;;;-141.84;40.41;19720.34;5431061;26;20329;-60
2024/04/16 10:28:03;;;;;;;2.10;0.90;;;12.10;99.90;;;-141.84;41.00;19726.44;5432394;26;20373;-61